sensor_id;sensor_type;location;lat;lon;timestamp;pressure;altitude;pressure_sealevel;temperature;humidity
50282;BME280;36176;51.506;10.272;2023-02-11T00:00:21;101111.81;;;2.62;83.47
50282;BME280;36176;51.506;10.272;2023-02-11T00:02:48;101109.22;;;2.65;83.58
50282;BME280;36176;51.506;10.272;2023-02-11T00:05:15;101104.00;;;2.66;83.25
50282;BME280;36176;51.506;10.272;2023-02-11T00:07:42;101108.31;;;2.63;83.51
50282;BME280;36176;51.506;10.272;2023-02-11T00:10:09;101103.97;;;2.65;83.16
50282;BME280;36176;51.506;10.272;2023-02-11T00:12:37;101114.47;;;2.66;83.48
50282;BME280;36176;51.506;10.272;2023-02-11T00:15:06;101108.44;;;2.73;82.89
50282;BME280;36176;51.506;10.272;2023-02-11T00:17:34;101099.78;;;2.79;82.68
50282;BME280;36176;51.506;10.272;2023-02-11T00:20:01;101091.97;;;2.84;83.10
50282;BME280;36176;51.506;10.272;2023-02-11T00:22:28;101093.75;;;2.88;82.77
50282;BME280;36176;51.506;10.272;2023-02-11T00:24:55;101088.47;;;2.85;82.99
50282;BME280;36176;51.506;10.272;2023-02-11T00:27:22;101089.38;;;2.87;82.98
50282;BME280;36176;51.506;10.272;2023-02-11T00:29:49;101085.06;;;2.90;83.02
50282;BME280;36176;51.506;10.272;2023-02-11T00:32:16;101078.97;;;2.94;82.68
50282;BME280;36176;51.506;10.272;2023-02-11T00:34:43;101070.28;;;2.95;83.28
50282;BME280;36176;51.506;10.272;2023-02-11T00:37:10;101070.28;;;2.98;82.74
50282;BME280;36176;51.506;10.272;2023-02-11T00:39:38;101063.31;;;3.01;82.73
50282;BME280;36176;51.506;10.272;2023-02-11T00:42:05;101058.13;;;3.04;82.76
50282;BME280;36176;51.506;10.272;2023-02-11T00:44:31;101045.06;;;3.07;83.50
50282;BME280;36176;51.506;10.272;2023-02-11T00:46:58;101041.63;;;3.12;82.82
50282;BME280;36176;51.506;10.272;2023-02-11T00:49:25;101041.66;;;3.17;82.67
50282;BME280;36176;51.506;10.272;2023-02-11T00:51:52;101053.00;;;3.17;82.60
50282;BME280;36176;51.506;10.272;2023-02-11T00:54:19;101058.25;;;3.19;83.32
50282;BME280;36176;51.506;10.272;2023-02-11T00:56:46;101060.88;;;3.20;83.64
50282;BME280;36176;51.506;10.272;2023-02-11T00:59:13;101059.09;;;3.18;83.72
50282;BME280;36176;51.506;10.272;2023-02-11T01:01:40;101063.56;;;3.27;83.37
50282;BME280;36176;51.506;10.272;2023-02-11T01:04:07;101068.84;;;3.31;83.52
50282;BME280;36176;51.506;10.272;2023-02-11T01:06:34;101075.81;;;3.32;83.59
50282;BME280;36176;51.506;10.272;2023-02-11T01:09:01;101087.22;;;3.37;83.37
50282;BME280;36176;51.506;10.272;2023-02-11T01:11:28;101083.75;;;3.41;83.34
50282;BME280;36176;51.506;10.272;2023-02-11T01:13:55;101087.28;;;3.45;83.17
50282;BME280;36176;51.506;10.272;2023-02-11T01:16:22;101071.53;;;3.44;83.21
50282;BME280;36176;51.506;10.272;2023-02-11T01:18:49;101068.94;;;3.47;82.83
50282;BME280;36176;51.506;10.272;2023-02-11T01:21:16;101064.63;;;3.50;82.80
50282;BME280;36176;51.506;10.272;2023-02-11T01:23:44;101064.66;;;3.55;82.83
50282;BME280;36176;51.506;10.272;2023-02-11T01:26:11;101054.13;;;3.50;83.08
50282;BME280;36176;51.506;10.272;2023-02-11T01:28:38;101061.13;;;3.51;82.82
50282;BME280;36176;51.506;10.272;2023-02-11T01:31:05;101069.84;;;3.49;83.30
50282;BME280;36176;51.506;10.272;2023-02-11T01:33:33;101083.81;;;3.49;82.81
50282;BME280;36176;51.506;10.272;2023-02-11T01:36:01;101092.59;;;3.53;82.88
50282;BME280;36176;51.506;10.272;2023-02-11T01:38:29;101078.63;;;3.55;83.12
50282;BME280;36176;51.506;10.272;2023-02-11T01:40:59;101060.31;;;3.57;82.81
50282;BME280;36176;51.506;10.272;2023-02-11T01:43:30;101045.41;;;3.56;82.72
50282;BME280;36176;51.506;10.272;2023-02-11T01:46:23;101048.03;;;3.56;82.95
50282;BME280;36176;51.506;10.272;2023-02-11T01:49:01;101039.31;;;3.55;83.21
50282;BME280;36176;51.506;10.272;2023-02-11T01:51:35;101046.31;;;3.55;83.01
50282;BME280;36176;51.506;10.272;2023-02-11T01:54:04;101030.59;;;3.58;83.23
50282;BME280;36176;51.506;10.272;2023-02-11T01:56:52;101028.84;;;3.57;83.07
50282;BME280;36176;51.506;10.272;2023-02-11T02:00:16;101041.94;;;3.58;83.08
50282;BME280;36176;51.506;10.272;2023-02-11T02:03:01;101042.81;;;3.59;82.57
50282;BME280;36176;51.506;10.272;2023-02-11T02:08:20;101050.72;;;3.65;82.55
50282;BME280;36176;51.506;10.272;2023-02-11T02:10:50;101056.00;;;3.67;82.34
50282;BME280;36176;51.506;10.272;2023-02-11T02:13:21;101049.88;;;3.69;82.56
50282;BME280;36176;51.506;10.272;2023-02-11T02:16:00;101030.66;;;3.70;82.40
50282;BME280;36176;51.506;10.272;2023-02-11T02:18:43;101026.28;;;3.68;81.87
50282;BME280;36176;51.506;10.272;2023-02-11T02:27:23;101030.63;;;3.62;82.54
50282;BME280;36176;51.506;10.272;2023-02-11T02:32:59;101012.19;;;3.49;82.61
50282;BME280;36176;51.506;10.272;2023-02-11T02:38:33;101012.16;;;3.43;82.94
50282;BME280;36176;51.506;10.272;2023-02-11T02:41:09;101013.91;;;3.47;82.27
50282;BME280;36176;51.506;10.272;2023-02-11T02:43:40;101007.78;;;3.45;82.78
50282;BME280;36176;51.506;10.272;2023-02-11T02:46:12;101014.78;;;3.44;82.61
50282;BME280;36176;51.506;10.272;2023-02-11T02:48:40;101001.66;;;3.44;82.62
50282;BME280;36176;51.506;10.272;2023-02-11T03:00:48;100997.28;;;3.45;82.95
50282;BME280;36176;51.506;10.272;2023-02-11T03:06:10;100985.03;;;3.37;83.21
50282;BME280;36176;51.506;10.272;2023-02-11T03:09:10;100982.41;;;3.36;84.23
50282;BME280;36176;51.506;10.272;2023-02-11T03:11:38;101001.63;;;3.33;84.05
50282;BME280;36176;51.506;10.272;2023-02-11T03:14:10;101001.56;;;3.29;84.37
50282;BME280;36176;51.506;10.272;2023-02-11T03:16:38;100985.00;;;3.28;84.53
50282;BME280;36176;51.506;10.272;2023-02-11T03:19:11;100976.25;;;3.26;84.80
50282;BME280;36176;51.506;10.272;2023-02-11T03:21:40;100973.59;;;3.25;84.92
50282;BME280;36176;51.506;10.272;2023-02-11T03:24:15;100975.38;;;3.26;85.15
50282;BME280;36176;51.506;10.272;2023-02-11T03:26:51;100955.28;;;3.28;85.09
50282;BME280;36176;51.506;10.272;2023-02-11T03:31:58;100966.59;;;3.25;84.98
50282;BME280;36176;51.506;10.272;2023-02-11T03:37:14;100964.00;;;3.27;85.21
50282;BME280;36176;51.506;10.272;2023-02-11T03:40:09;100964.00;;;3.25;85.41
50282;BME280;36176;51.506;10.272;2023-02-11T03:42:37;100964.88;;;3.26;85.32
50282;BME280;36176;51.506;10.272;2023-02-11T03:45:12;100951.78;;;3.27;85.15
50282;BME280;36176;51.506;10.272;2023-02-11T03:47:46;100944.78;;;3.28;85.06
50282;BME280;36176;51.506;10.272;2023-02-11T03:50:15;100943.06;;;3.30;84.76
50282;BME280;36176;51.506;10.272;2023-02-11T03:52:44;100942.19;;;3.29;85.08
50282;BME280;36176;51.506;10.272;2023-02-11T03:55:16;100945.69;;;3.30;84.86
50282;BME280;36176;51.506;10.272;2023-02-11T03:57:43;100937.81;;;3.30;84.77
50282;BME280;36176;51.506;10.272;2023-02-11T04:00:11;100948.31;;;3.28;84.79
50282;BME280;36176;51.506;10.272;2023-02-11T04:02:39;100952.66;;;3.26;85.20
50282;BME280;36176;51.506;10.272;2023-02-11T04:05:09;100943.06;;;3.28;85.03
50282;BME280;36176;51.506;10.272;2023-02-11T04:07:36;100951.84;;;3.33;84.82
50282;BME280;36176;51.506;10.272;2023-02-11T04:10:04;100952.72;;;3.35;84.91
50282;BME280;36176;51.506;10.272;2023-02-11T04:12:31;100944.00;;;3.38;85.01
50282;BME280;36176;51.506;10.272;2023-02-11T04:14:58;100943.09;;;3.37;84.73
50282;BME280;36176;51.506;10.272;2023-02-11T04:17:25;100941.38;;;3.41;84.92
50282;BME280;36176;51.506;10.272;2023-02-11T04:19:52;100946.66;;;3.46;84.68
50282;BME280;36176;51.506;10.272;2023-02-11T04:22:19;100944.91;;;3.43;84.92
50282;BME280;36176;51.506;10.272;2023-02-11T04:24:46;100944.91;;;3.46;84.92
50282;BME280;36176;51.506;10.272;2023-02-11T04:27:13;100957.97;;;3.41;85.38
50282;BME280;36176;51.506;10.272;2023-02-11T04:29:41;100955.38;;;3.43;84.45
50282;BME280;36176;51.506;10.272;2023-02-11T04:32:10;100954.50;;;3.44;84.62
50282;BME280;36176;51.506;10.272;2023-02-11T04:34:37;100952.78;;;3.49;85.00
50282;BME280;36176;51.506;10.272;2023-02-11T04:37:04;100951.03;;;3.51;84.99
50282;BME280;36176;51.506;10.272;2023-02-11T04:39:31;100964.13;;;3.47;84.76
50282;BME280;36176;51.506;10.272;2023-02-11T04:41:58;100979.88;;;3.50;85.01
50282;BME280;36176;51.506;10.272;2023-02-11T04:44:25;100974.66;;;3.53;84.75
50282;BME280;36176;51.506;10.272;2023-02-11T04:46:52;100976.38;;;3.54;84.53
50282;BME280;36176;51.506;10.272;2023-02-11T04:49:19;100978.16;;;3.55;84.85
50282;BME280;36176;51.506;10.272;2023-02-11T04:51:46;100980.78;;;3.58;84.78
50282;BME280;36176;51.506;10.272;2023-02-11T04:54:15;100985.13;;;3.56;84.67
50282;BME280;36176;51.506;10.272;2023-02-11T04:56:43;100971.19;;;3.58;85.03
50282;BME280;36176;51.506;10.272;2023-02-11T04:59:10;100982.53;;;3.57;84.97
50282;BME280;36176;51.506;10.272;2023-02-11T05:01:39;100972.94;;;3.59;84.88
50282;BME280;36176;51.506;10.272;2023-02-11T05:04:06;100965.94;;;3.61;84.39
50282;BME280;36176;51.506;10.272;2023-02-11T05:06:33;100969.47;;;3.62;84.64
50282;BME280;36176;51.506;10.272;2023-02-11T05:09:00;100972.06;;;3.63;84.37
50282;BME280;36176;51.506;10.272;2023-02-11T05:11:27;100977.34;;;3.68;84.34
50282;BME280;36176;51.506;10.272;2023-02-11T05:13:54;100975.59;;;3.69;84.39
50282;BME280;36176;51.506;10.272;2023-02-11T05:16:21;100972.09;;;3.68;84.44
50282;BME280;36176;51.506;10.272;2023-02-11T05:18:49;100966.88;;;3.67;84.46
50282;BME280;36176;51.506;10.272;2023-02-11T05:21:18;100965.09;;;3.66;84.79
50282;BME280;36176;51.506;10.272;2023-02-11T05:23:46;100958.97;;;3.65;84.61
50282;BME280;36176;51.506;10.272;2023-02-11T05:26:13;100956.38;;;3.65;84.96
50282;BME280;36176;51.506;10.272;2023-02-11T05:28:41;100951.13;;;3.62;84.62
50282;BME280;36176;51.506;10.272;2023-02-11T05:31:08;100947.63;;;3.63;85.01
50282;BME280;36176;51.506;10.272;2023-02-11T05:33:35;100945.88;;;3.63;85.01
50282;BME280;36176;51.506;10.272;2023-02-11T05:36:05;100945.00;;;3.66;85.33
50282;BME280;36176;51.506;10.272;2023-02-11T05:38:33;100950.25;;;3.66;85.42
50282;BME280;36176;51.506;10.272;2023-02-11T05:41:01;100951.13;;;3.65;85.73
50282;BME280;36176;51.506;10.272;2023-02-11T05:43:28;100939.75;;;3.63;85.83
50282;BME280;36176;51.506;10.272;2023-02-11T05:45:55;100947.66;;;3.69;86.40
50282;BME280;36176;51.506;10.272;2023-02-11T05:48:22;100941.53;;;3.64;86.51
50282;BME280;36176;51.506;10.272;2023-02-11T05:50:49;100945.88;;;3.68;87.09
50282;BME280;36176;51.506;10.272;2023-02-11T05:53:16;100946.78;;;3.70;87.29
50282;BME280;36176;51.506;10.272;2023-02-11T05:55:43;100947.66;;;3.72;87.80
50282;BME280;36176;51.506;10.272;2023-02-11T05:58:10;100952.91;;;3.72;88.32
50282;BME280;36176;51.506;10.272;2023-02-11T06:00:37;100951.16;;;3.77;88.39
50282;BME280;36176;51.506;10.272;2023-02-11T06:03:04;100939.84;;;3.78;88.70
50282;BME280;36176;51.506;10.272;2023-02-11T06:05:31;100928.44;;;3.75;88.94
50282;BME280;36176;51.506;10.272;2023-02-11T06:07:58;100936.28;;;3.70;89.16
50282;BME280;36176;51.506;10.272;2023-02-11T06:10:26;100931.03;;;3.73;89.83
50282;BME280;36176;51.506;10.272;2023-02-11T06:12:53;100937.19;;;3.74;89.85
50282;BME280;36176;51.506;10.272;2023-02-11T06:15:20;100942.41;;;3.72;90.13
50282;BME280;36176;51.506;10.272;2023-02-11T06:17:47;100929.31;;;3.75;89.84
50282;BME280;36176;51.506;10.272;2023-02-11T06:20:14;100935.44;;;3.74;90.38
50282;BME280;36176;51.506;10.272;2023-02-11T06:22:41;100935.41;;;3.73;90.06
50282;BME280;36176;51.506;10.272;2023-02-11T06:25:08;100934.50;;;3.63;91.09
50282;BME280;36176;51.506;10.272;2023-02-11T06:27:37;100929.28;;;3.66;90.98
50282;BME280;36176;51.506;10.272;2023-02-11T06:30:05;100931.94;;;3.69;91.27
50282;BME280;36176;51.506;10.272;2023-02-11T06:32:32;100932.81;;;3.73;90.72
50282;BME280;36176;51.506;10.272;2023-02-11T06:35:15;100938.94;;;3.75;91.18
50282;BME280;36176;51.506;10.272;2023-02-11T06:37:42;100933.69;;;3.76;90.84
50282;BME280;36176;51.506;10.272;2023-02-11T06:40:10;100934.59;;;3.78;90.71
50282;BME280;36176;51.506;10.272;2023-02-11T06:42:37;100933.72;;;3.81;90.62
50282;BME280;36176;51.506;10.272;2023-02-11T06:45:07;100931.09;;;3.76;91.29
50282;BME280;36176;51.506;10.272;2023-02-11T06:47:39;100931.94;;;3.74;91.51
50282;BME280;36176;51.506;10.272;2023-02-11T06:50:07;100931.06;;;3.75;91.77
50282;BME280;36176;51.506;10.272;2023-02-11T06:52:35;100931.06;;;3.78;91.99
50282;BME280;36176;51.506;10.272;2023-02-11T06:55:02;100928.47;;;3.81;91.80
50282;BME280;36176;51.506;10.272;2023-02-11T06:57:29;100930.19;;;3.77;92.03
50282;BME280;36176;51.506;10.272;2023-02-11T06:59:56;100938.09;;;3.82;92.06
50282;BME280;36176;51.506;10.272;2023-02-11T07:02:23;100938.06;;;3.77;92.53
50282;BME280;36176;51.506;10.272;2023-02-11T07:04:50;100939.81;;;3.74;92.81
50282;BME280;36176;51.506;10.272;2023-02-11T07:07:17;100934.56;;;3.75;93.91
50282;BME280;36176;51.506;10.272;2023-02-11T07:09:44;100937.19;;;3.77;93.77
50282;BME280;36176;51.506;10.272;2023-02-11T07:12:11;100937.22;;;3.78;93.98
50282;BME280;36176;51.506;10.272;2023-02-11T07:14:38;100948.56;;;3.80;94.08
50282;BME280;36176;51.506;10.272;2023-02-11T07:17:05;100952.06;;;3.81;94.35
50282;BME280;36176;51.506;10.272;2023-02-11T07:19:32;100950.34;;;3.86;94.30
50282;BME280;36176;51.506;10.272;2023-02-11T07:21:59;100964.38;;;3.93;93.82
50282;BME280;36176;51.506;10.272;2023-02-11T07:24:26;100967.84;;;3.99;93.53
50282;BME280;36176;51.506;10.272;2023-02-11T07:26:53;100975.75;;;4.05;93.65
50282;BME280;36176;51.506;10.272;2023-02-11T07:29:20;100967.91;;;4.07;93.43
50282;BME280;36176;51.506;10.272;2023-02-11T07:31:47;100974.94;;;4.14;93.01
50282;BME280;36176;51.506;10.272;2023-02-11T07:34:14;100978.44;;;4.19;92.49
50282;BME280;36176;51.506;10.272;2023-02-11T07:36:41;100982.81;;;4.25;92.53
50282;BME280;36176;51.506;10.272;2023-02-11T07:39:11;100989.84;;;4.29;91.99
50282;BME280;36176;51.506;10.272;2023-02-11T07:41:38;100985.44;;;4.28;92.28
50282;BME280;36176;51.506;10.272;2023-02-11T07:44:05;100981.06;;;4.22;92.17
50282;BME280;36176;51.506;10.272;2023-02-11T07:46:33;100992.44;;;4.21;92.05
50282;BME280;36176;51.506;10.272;2023-02-11T07:49:01;100990.69;;;4.25;92.34
50282;BME280;36176;51.506;10.272;2023-02-11T07:51:29;100993.31;;;4.28;92.09
50282;BME280;36176;51.506;10.272;2023-02-11T07:53:58;100995.06;;;4.32;91.83
50282;BME280;36176;51.506;10.272;2023-02-11T07:56:26;100989.84;;;4.35;91.72
50282;BME280;36176;51.506;10.272;2023-02-11T07:58:58;100984.59;;;4.37;91.90
50282;BME280;36176;51.506;10.272;2023-02-11T08:01:26;100981.09;;;4.32;92.07
50282;BME280;36176;51.506;10.272;2023-02-11T08:03:55;100983.72;;;4.35;92.44
50282;BME280;36176;51.506;10.272;2023-02-11T08:06:24;100976.75;;;4.38;91.59
50282;BME280;36176;51.506;10.272;2023-02-11T08:08:51;100974.13;;;4.38;91.81
50282;BME280;36176;51.506;10.272;2023-02-11T08:13:50;100987.25;;;4.38;91.53
50282;BME280;36176;51.506;10.272;2023-02-11T08:16:29;100982.84;;;4.40;91.33
50282;BME280;36176;51.506;10.272;2023-02-11T08:19:00;100988.13;;;4.43;91.11
50282;BME280;36176;51.506;10.272;2023-02-11T08:21:28;100983.72;;;4.39;91.27
50282;BME280;36176;51.506;10.272;2023-02-11T08:23:56;100995.09;;;4.44;90.80
50282;BME280;36176;51.506;10.272;2023-02-11T08:26:28;100998.63;;;4.43;91.32
50282;BME280;36176;51.506;10.272;2023-02-11T08:28:57;100988.13;;;4.43;90.84
50282;BME280;36176;51.506;10.272;2023-02-11T08:31:27;100999.47;;;4.44;90.95
50282;BME280;36176;51.506;10.272;2023-02-11T08:33:55;100996.84;;;4.42;91.14
50282;BME280;36176;51.506;10.272;2023-02-11T08:36:35;100998.63;;;4.48;91.02
50282;BME280;36176;51.506;10.272;2023-02-11T08:39:05;100998.59;;;4.50;90.60
50282;BME280;36176;51.506;10.272;2023-02-11T08:41:53;101001.25;;;4.57;90.12
50282;BME280;36176;51.506;10.272;2023-02-11T08:44:24;101000.38;;;4.58;90.41
50282;BME280;36176;51.506;10.272;2023-02-11T08:46:51;101005.66;;;4.67;90.25
50282;BME280;36176;51.506;10.272;2023-02-11T08:49:19;101004.78;;;4.68;90.03
50282;BME280;36176;51.506;10.272;2023-02-11T08:51:47;101001.28;;;4.71;90.43
50282;BME280;36176;51.506;10.272;2023-02-11T08:54:14;101002.16;;;4.75;90.19
50282;BME280;36176;51.506;10.272;2023-02-11T08:56:42;100998.69;;;4.82;90.07
50282;BME280;36176;51.506;10.272;2023-02-11T08:59:13;100992.53;;;4.83;89.53
50282;BME280;36176;51.506;10.272;2023-02-11T09:01:40;100999.53;;;4.93;89.42
50282;BME280;36176;51.506;10.272;2023-02-11T09:04:08;100995.16;;;5.00;89.41
50282;BME280;36176;51.506;10.272;2023-02-11T09:06:35;100996.03;;;5.00;89.20
50282;BME280;36176;51.506;10.272;2023-02-11T09:09:02;100995.16;;;5.04;89.29
50282;BME280;36176;51.506;10.272;2023-02-11T09:11:32;101002.16;;;5.07;89.43
50282;BME280;36176;51.506;10.272;2023-02-11T09:14:01;101004.78;;;5.11;88.91
50282;BME280;36176;51.506;10.272;2023-02-11T09:16:33;101007.44;;;5.13;89.37
50282;BME280;36176;51.506;10.272;2023-02-11T09:19:02;101009.19;;;5.17;88.87
50282;BME280;36176;51.506;10.272;2023-02-11T09:21:30;101021.44;;;5.18;89.33
50282;BME280;36176;51.506;10.272;2023-02-11T09:23:57;101006.56;;;5.16;89.39
50282;BME280;36176;51.506;10.272;2023-02-11T09:26:27;101011.81;;;5.19;89.59
50282;BME280;36176;51.506;10.272;2023-02-11T09:28:55;101008.28;;;5.21;89.44
50282;BME280;36176;51.506;10.272;2023-02-11T09:31:23;101018.78;;;5.29;89.37
50282;BME280;36176;51.506;10.272;2023-02-11T09:33:56;101021.44;;;5.30;89.43
50282;BME280;36176;51.506;10.272;2023-02-11T09:36:26;101018.78;;;5.38;88.85
50282;BME280;36176;51.506;10.272;2023-02-11T09:38:56;101014.41;;;5.46;89.35
50282;BME280;36176;51.506;10.272;2023-02-11T09:44:31;101008.25;;;5.50;89.29
50282;BME280;36176;51.506;10.272;2023-02-11T09:47:02;101026.66;;;5.53;88.99
50282;BME280;36176;51.506;10.272;2023-02-11T09:52:57;101024.91;;;5.48;88.51
50282;BME280;36176;51.506;10.272;2023-02-11T09:55:33;101032.81;;;5.45;89.34
50282;BME280;36176;51.506;10.272;2023-02-11T09:58:09;101031.06;;;5.48;89.20
50282;BME280;36176;51.506;10.272;2023-02-11T10:00:42;101040.69;;;5.45;89.83
50282;BME280;36176;51.506;10.272;2023-02-11T10:03:17;101034.53;;;5.55;89.53
50282;BME280;36176;51.506;10.272;2023-02-11T10:08:56;101046.81;;;5.54;89.56
50282;BME280;36176;51.506;10.272;2023-02-11T10:17:35;101053.78;;;5.69;89.30
50282;BME280;36176;51.506;10.272;2023-02-11T10:23:01;101069.56;;;5.69;89.53
50282;BME280;36176;51.506;10.272;2023-02-11T10:25:38;101075.72;;;5.73;88.89
50282;BME280;36176;51.506;10.272;2023-02-11T10:28:17;101063.44;;;5.72;89.70
50282;BME280;36176;51.506;10.272;2023-02-11T10:30:55;101050.28;;;5.78;88.93
50282;BME280;36176;51.506;10.272;2023-02-11T10:33:39;101042.41;;;5.67;89.45
50282;BME280;36176;51.506;10.272;2023-02-11T10:36:14;101052.06;;;5.73;89.92
50282;BME280;36176;51.506;10.272;2023-02-11T10:38:42;101057.28;;;5.76;89.73
50282;BME280;36176;51.506;10.272;2023-02-11T10:41:16;101052.91;;;5.80;89.08
50282;BME280;36176;51.506;10.272;2023-02-11T10:43:45;101051.16;;;5.80;88.95
50282;BME280;36176;51.506;10.272;2023-02-11T10:46:21;101053.75;;;5.86;88.40
50282;BME280;36176;51.506;10.272;2023-02-11T10:48:51;101059.03;;;5.89;88.47
50282;BME280;36176;51.506;10.272;2023-02-11T10:51:33;101066.03;;;5.90;88.41
50282;BME280;36176;51.506;10.272;2023-02-11T10:56:33;101062.53;;;5.81;88.17
50282;BME280;36176;51.506;10.272;2023-02-11T10:59:04;101059.03;;;5.85;88.59
50282;BME280;36176;51.506;10.272;2023-02-11T11:01:44;101066.91;;;5.83;88.30
50282;BME280;36176;51.506;10.272;2023-02-11T11:04:43;101066.03;;;5.81;88.47
50282;BME280;36176;51.506;10.272;2023-02-11T11:07:25;101059.88;;;5.88;88.43
50282;BME280;36176;51.506;10.272;2023-02-11T11:09:56;101064.31;;;5.94;88.27
50282;BME280;36176;51.506;10.272;2023-02-11T11:15:23;101055.50;;;6.09;87.56
50282;BME280;36176;51.506;10.272;2023-02-11T11:18:14;101059.91;;;5.99;87.82
50282;BME280;36176;51.506;10.272;2023-02-11T11:20:56;101054.66;;;5.91;88.17
50282;BME280;36176;51.506;10.272;2023-02-11T11:23:25;101047.63;;;5.95;88.00
50282;BME280;36176;51.506;10.272;2023-02-11T11:31:24;101055.50;;;6.04;88.62
50282;BME280;36176;51.506;10.272;2023-02-11T11:33:54;101058.16;;;6.06;88.02
50282;BME280;36176;51.506;10.272;2023-02-11T11:36:32;101053.72;;;6.08;88.54
50282;BME280;36176;51.506;10.272;2023-02-11T11:39:09;101052.84;;;6.13;88.48
50282;BME280;36176;51.506;10.272;2023-02-11T11:41:49;101058.09;;;6.16;88.12
50282;BME280;36176;51.506;10.272;2023-02-11T11:46:48;101053.69;;;6.18;88.36
50282;BME280;36176;51.506;10.272;2023-02-11T11:49:24;101053.72;;;6.12;87.90
50282;BME280;36176;51.506;10.272;2023-02-11T11:52:25;101051.94;;;6.19;87.92
50282;BME280;36176;51.506;10.272;2023-02-11T11:54:52;101041.44;;;6.16;88.26
50282;BME280;36176;51.506;10.272;2023-02-11T11:57:25;101042.31;;;6.18;87.92
50282;BME280;36176;51.506;10.272;2023-02-11T11:59:54;101041.41;;;6.13;88.38
50282;BME280;36176;51.506;10.272;2023-02-11T12:23:53;101048.41;;;6.22;88.79
50282;BME280;36176;51.506;10.272;2023-02-11T12:26:50;101045.81;;;6.18;87.93
50282;BME280;36176;51.506;10.272;2023-02-11T12:35:47;101050.19;;;6.16;88.22
50282;BME280;36176;51.506;10.272;2023-02-11T12:43:40;101059.00;;;6.11;88.63
50282;BME280;36176;51.506;10.272;2023-02-11T12:46:33;101049.31;;;6.13;88.07
50282;BME280;36176;51.506;10.272;2023-02-11T12:52:29;101044.97;;;5.98;88.24
50282;BME280;36176;51.506;10.272;2023-02-11T12:55:21;101046.72;;;6.07;88.52
50282;BME280;36176;51.506;10.272;2023-02-11T12:57:50;101051.09;;;6.08;88.33
50282;BME280;36176;51.506;10.272;2023-02-11T13:00:22;101045.81;;;6.14;88.31
50282;BME280;36176;51.506;10.272;2023-02-11T13:03:05;101052.81;;;6.21;87.94
50282;BME280;36176;51.506;10.272;2023-02-11T13:05:37;101053.66;;;6.20;88.11
50282;BME280;36176;51.506;10.272;2023-02-11T13:08:13;101054.56;;;6.21;88.00
50282;BME280;36176;51.506;10.272;2023-02-11T13:10:45;101055.47;;;6.12;87.79
50282;BME280;36176;51.506;10.272;2023-02-11T13:16:05;101043.22;;;6.05;88.21
50282;BME280;36176;51.506;10.272;2023-02-11T13:19:00;101039.72;;;6.00;88.62
50282;BME280;36176;51.506;10.272;2023-02-11T13:21:37;101039.75;;;5.96;88.56
50282;BME280;36176;51.506;10.272;2023-02-11T13:29:41;101043.22;;;5.92;88.73
50282;BME280;36176;51.506;10.272;2023-02-11T13:32:14;101039.75;;;5.96;88.97
50282;BME280;36176;51.506;10.272;2023-02-11T13:37:23;101042.34;;;5.98;89.06
50282;BME280;36176;51.506;10.272;2023-02-11T13:39:57;101043.25;;;5.95;89.12
50282;BME280;36176;51.506;10.272;2023-02-11T13:42:25;101044.97;;;6.03;89.53
50282;BME280;36176;51.506;10.272;2023-02-11T13:44:53;101043.19;;;6.08;88.68
50282;BME280;36176;51.506;10.272;2023-02-11T13:47:25;101054.59;;;6.10;88.70
50282;BME280;36176;51.506;10.272;2023-02-11T13:49:55;101048.47;;;6.11;89.03
50282;BME280;36176;51.506;10.272;2023-02-11T13:52:28;101047.59;;;6.07;89.63
50282;BME280;36176;51.506;10.272;2023-02-11T13:55:06;101044.06;;;6.11;89.74
50282;BME280;36176;51.506;10.272;2023-02-11T13:57:37;101037.94;;;6.09;89.74
50282;BME280;36176;51.506;10.272;2023-02-11T14:11:44;101041.41;;;6.19;89.61
50282;BME280;36176;51.506;10.272;2023-02-11T14:17:17;101036.13;;;6.25;89.87
50282;BME280;36176;51.506;10.272;2023-02-11T14:19:46;101037.88;;;6.28;90.30
50282;BME280;36176;51.506;10.272;2023-02-11T14:22:22;101038.72;;;6.33;89.90
50282;BME280;36176;51.506;10.272;2023-02-11T14:24:59;101041.34;;;6.37;89.55
50282;BME280;36176;51.506;10.272;2023-02-11T14:27:41;101043.94;;;6.39;90.29
50282;BME280;36176;51.506;10.272;2023-02-11T14:36:01;101045.69;;;6.42;90.96
50282;BME280;36176;51.506;10.272;2023-02-11T14:38:53;101045.72;;;6.35;90.98
50282;BME280;36176;51.506;10.272;2023-02-11T14:41:23;101050.09;;;6.36;91.74
50282;BME280;36176;51.506;10.272;2023-02-11T14:43:57;101051.84;;;6.42;91.34
50282;BME280;36176;51.506;10.272;2023-02-11T14:46:27;101053.53;;;6.51;91.50
50282;BME280;36176;51.506;10.272;2023-02-11T14:49:04;101057.88;;;6.58;91.14
50282;BME280;36176;51.506;10.272;2023-02-11T14:51:34;101058.75;;;6.62;91.02
50282;BME280;36176;51.506;10.272;2023-02-11T14:54:18;101060.50;;;6.63;91.25
50282;BME280;36176;51.506;10.272;2023-02-11T14:57:18;101064.00;;;6.65;92.19
50282;BME280;36176;51.506;10.272;2023-02-11T14:59:57;101066.66;;;6.62;92.38
50282;BME280;36176;51.506;10.272;2023-02-11T15:02:32;101071.97;;;6.58;93.33
50282;BME280;36176;51.506;10.272;2023-02-11T15:05:23;101067.53;;;6.62;94.49
50282;BME280;36176;51.506;10.272;2023-02-11T15:07:55;101062.25;;;6.65;94.52
50282;BME280;36176;51.506;10.272;2023-02-11T15:12:55;101078.03;;;6.71;94.97
50282;BME280;36176;51.506;10.272;2023-02-11T15:15:24;101081.53;;;6.73;94.89
50282;BME280;36176;51.506;10.272;2023-02-11T15:17:52;101077.16;;;6.71;94.91
50282;BME280;36176;51.506;10.272;2023-02-11T15:20:26;101083.25;;;6.74;94.80
50282;BME280;36176;51.506;10.272;2023-02-11T15:22:57;101090.31;;;6.75;95.21
50282;BME280;36176;51.506;10.272;2023-02-11T15:25:26;101103.47;;;6.74;95.83
50282;BME280;36176;51.506;10.272;2023-02-11T15:27:56;101102.59;;;6.73;95.70